Flight Track Log - Related Links

Times and Time Zones

All times are in EST time to prevent confusion due to time zone crossing. See the BOE236 flight status page for this flight to view local times or setup timezone preferences in your user account.

Time Position Orientation Groundspeed Altitude Reporting Facility
EST Latitude Longitude Course Direction KTS MPH feet Rate Location/Type
Thu 12:35:02 AM 47.4325 -122.3086 179° South 131 151 1,400  Level Seattle Center
Thu 12:35:27 AM 47.4175 -122.3083 181° South 138 159 2,100 1,814 Climbing Seattle Center
Thu 12:36:28 AM 47.3600 -122.3100 222° Southwest 219 252 4,000 2,607 Climbing Seattle Center
Thu 12:37:29 AM 47.3136 -122.3706 266° West 260 299 7,400 3,098 Climbing Seattle Center
Thu 12:38:30 AM 47.3078 -122.4797 272° West 273 314 10,300 2,331 Climbing Seattle Center
Thu 12:39:30 AM 47.3111 -122.6031 272° West 310 357 12,100 2,331 Climbing Seattle Center
Thu 12:40:31 AM 47.3142 -122.7414 253° West 343 395 15,000 2,852 Climbing Seattle Center
Thu 12:41:32 AM 47.2861 -122.8778 249° West 355 409 17,900 2,508 Climbing Seattle Center
Thu 12:42:33 AM 47.2489 -123.0200 221° Southwest 374 430 20,100 2,479 Climbing Seattle Center
Thu 12:43:33 AM 47.1503 -123.1456 206° Southwest 403 464 22,900 2,678 Climbing Seattle Center
Thu 12:44:34 AM 47.0464 -123.2203 182° South 428 493 25,500 2,361 Climbing Seattle Center
Thu 12:45:35 AM 46.9214 -123.2256 181° South 457 526 27,700 2,016 Climbing Seattle Center
Thu 12:46:36 AM 46.7936 -123.2292 183° South 462 532 29,600 1,869 Climbing Seattle Center
Thu 12:47:37 AM 46.6606 -123.2408 182° South 479 551 31,500 1,686 Climbing Seattle Center
Thu 12:48:37 AM 46.5239 -123.2489 181° South 491 565 33,000 1,438 Climbing Seattle Center
Thu 12:49:38 AM 46.3764 -123.2533 181° South 513 590 34,400 1,525 Climbing Seattle Center
Thu 12:50:39 AM 46.2286 -123.2556 181° South 527 606 36,100 1,574 Climbing Seattle Center
Thu 12:51:40 AM 46.0822 -123.2600 181° South 527 606 37,600 1,488 Climbing Seattle Center
Thu 12:52:40 AM 45.9372 -123.2625 181° South 523 602 39,100 1,388 Climbing Seattle Center
Thu 12:53:41 AM 45.7928 -123.2669 181° South 521 600 40,400 934 Climbing Seattle Center
Thu 12:54:42 AM 45.6486 -123.2717 181° South 519 597 41,000 298 Climbing Seattle Center
Thu 12:55:42 AM 45.5067 -123.2769 181° South 514 592 41,000  Level Seattle Center
Thu 12:56:43 AM 45.3653 -123.2800 181° South 508 585 41,000  Level Seattle Center
Thu 12:57:44 AM 45.1958 -123.2850 181° South 506 582 41,000  Level Seattle Center
Thu 12:58:45 AM 45.0803 -123.2892 181° South 510 587 41,000  Level Seattle Center
Thu 12:59:45 AM 44.9347 -123.2931 182° South 514 592 41,000  Level Seattle Center
Thu 01:00:46 AM 44.7903 -123.2989 181° South 510 587 41,000  Level Seattle Center
Thu 01:01:47 AM 44.6469 -123.3036 181° South 509 586 41,000  Level Seattle Center
Thu 01:02:47 AM 44.5042 -123.3083 181° South 511 588 41,000  Level Seattle Center
Thu 01:03:48 AM 44.3611 -123.3133 181° South 512 589 41,000  Level Seattle Center
Thu 01:04:49 AM 44.1900 -123.3178 182° South 513 590 41,000  Level Seattle Center
Thu 01:05:49 AM 44.0481 -123.3244 205° Southwest 511 588 41,000  Level Seattle Center
Thu 01:06:50 AM 43.9281 -123.4008 255° West 503 579 41,000  Level Seattle Center
Thu 01:07:51 AM 43.8956 -123.5697 303° West 477 549 41,000  Level Seattle Center
Thu 01:08:51 AM 43.9597 -123.7086 336° Northwest 451 519 41,000  Level Seattle Center
Thu 01:09:52 AM 44.0717 -123.7775 339° North 444 511 41,000  Level Seattle Center
Thu 01:10:53 AM 44.1833 -123.8372 338° Northwest 437 503 41,000  Level Seattle Center
Thu 01:11:53 AM 44.2969 -123.9011 338° Northwest 438 504 41,000  Level Seattle Center
Thu 01:12:54 AM 44.4106 -123.9664 338° Northwest 439 505 41,000  Level Seattle Center
Thu 01:13:54 AM 44.5236 -124.0306 349° North 438 504 41,000  Level Seattle Center
Thu 01:14:55 AM 44.6453 -124.0631 358° North 445 512 41,000  Level Seattle Center
Thu 01:15:56 AM 44.7697 -124.0681 359° North 445 512 41,000  Level Seattle Center
Thu 01:16:56 AM 44.8956 -124.0725 359° North 447 514 41,000  Level Seattle Center
Thu 01:17:57 AM 45.0206 -124.0769 359° North 447 514 41,000  Level Seattle Center
Thu 01:18:57 AM 45.1458 -124.0806 359° North 447 514 41,000  Level Seattle Center
Thu 01:19:58 AM 45.2694 -124.0847 358° North 444 511 41,000  Level Seattle Center
Thu 01:20:58 AM 45.3928 -124.0906 358° North 443 510 41,000  Level Seattle Center
Thu 01:21:59 AM 45.5164 -124.0956 358° North 443 510 41,000  Level Seattle Center
Thu 01:23:00 AM 45.6403 -124.1006 359° North 444 511 41,000  Level Seattle Center
Thu 01:24:00 AM 45.7631 -124.1028 358° North 443 510 41,000  Level Seattle Center
Thu 01:25:01 AM 45.8869 -124.1097 359° North 444 511 41,000  Level Seattle Center
Thu 01:26:01 AM 46.0128 -124.1139 359° North 449 517 41,000  Level Seattle Center
Thu 01:27:02 AM 46.1375 -124.1175 358° North 449 517 41,000  Level Seattle Center
Thu 01:28:02 AM 46.2650 -124.1242 358° North 456 525 41,000  Level Seattle Center
Thu 01:29:03 AM 46.3900 -124.1300 359° North 452 520 41,000 -50 Level Seattle Center
Thu 01:30:03 AM 46.5333 -124.1347 358° North 454 522 40,900  Descending Seattle Center
Thu 01:31:04 AM 46.6600 -124.1406 359° North 456 525 41,000  Climbing Seattle Center
Thu 01:32:04 AM 46.7875 -124.1450 359° North 459 528 40,900  Descending Seattle Center
Thu 01:33:05 AM 46.9150 -124.1492 349° North 459 528 41,000  Climbing Seattle Center
Thu 01:34:05 AM 47.0381 -124.1831 347° North 452 520 40,900  Descending Seattle Center
Thu 01:35:06 AM 47.1600 -124.2244 347° North 451 519 41,000 -99 Climbing Seattle Center
Thu 01:36:06 AM 47.2819 -124.2658 347° North 451 519 40,700 -446 Descending Seattle Center
Thu 01:37:07 AM 47.3994 -124.3067 347° North 439 505 40,100 -1,091 Descending Seattle Center
Thu 01:38:07 AM 47.5119 -124.3461 347° North 423 487 38,500 -1,736 Descending Seattle Center
Thu 01:39:08 AM 47.6231 -124.3850 346° North 413 475 36,600 -1,785 Descending Seattle Center
Thu 01:40:08 AM 47.7347 -124.4258 347° North 414 476 34,900 -1,983 Descending Seattle Center
Thu 01:41:09 AM 47.8442 -124.4644 347° North 408 470 32,600 -2,975 Descending Seattle Center
Thu 01:42:09 AM 47.9586 -124.5044 354° North 421 484 28,900 -3,620 Descending Seattle Center
Thu 01:43:10 AM 48.0825 -124.5233 30° Northeast 448 516 25,300 -3,620 Descending Seattle Center
Thu 01:44:10 AM 48.1961 -124.4244 70° East 490 564 21,600 -3,074 Descending Seattle Center
Thu 01:45:11 AM 48.2400 -124.2381 101° East 494 568 19,100 -2,132 Descending Seattle Center
Thu 01:46:11 AM 48.2158 -124.0483 102° East 469 540 17,300 -992 Descending Seattle Center
Thu 01:47:12 AM 48.1883 -123.8603 103° East 465 535 17,100 -793 Descending Seattle Center
Thu 01:48:12 AM 48.1608 -123.6761 103° East 460 529 15,700 -1,983 Descending Seattle Center
Thu 01:49:13 AM 48.1286 -123.4658 102° East 438 504 13,100 -1,488 Descending Seattle Center
Thu 01:50:13 AM 48.1039 -123.2981 104° East 419 482 12,700 -835 Descending Seattle Center
Thu 01:51:08 AM 48.0792 -123.1533 88° East 380 437 11,500 -1,279 Descending Seattle Center
Thu 01:51:14 AM 48.0794 -123.1411 104° East 384 442 11,400 -455 Descending Seattle Center
Thu 01:52:14 AM 48.0572 -123.0056 135° Southeast 338 389 11,000 -393 Descending Seattle Center
Thu 01:52:15 AM 48.0561 -123.0039 103° East 332 382 11,000  Level Seattle Center
Thu 01:53:10 AM 48.0381 -122.8850 109° East 311 358 11,000  Level Seattle Center
Thu 01:53:14 AM 48.0369 -122.8803 135° Southeast 315 362 11,000 -646 Level Seattle Center
Thu 01:54:15 AM 47.9817 -122.7983 151° Southeast 288 331 10,300 -750 Descending Seattle Center
Thu 01:54:34 AM 47.9561 -122.7775 147° Southeast 291 335 10,000 -700 Descending Seattle Center
Thu 01:55:15 AM 47.9136 -122.7367 154° Southeast 290 334 9,600 -873 Descending Seattle Center
Thu 01:55:29 AM 47.8939 -122.7225 147° Southeast 286 329 9,200 -1,770 Descending Seattle Center
Thu 01:56:16 AM 47.8475 -122.6772 150° Southeast 283 326 7,800 -2,164 Descending Seattle Center
Thu 01:56:30 AM 47.8272 -122.6600 140° Southeast 273 314 7,000 -2,700 Descending Seattle Center
Thu 01:57:16 AM 47.7869 -122.6089 114° Southeast 261 300 5,100 -2,600 Descending Seattle Center
Thu 01:57:30 AM 47.7803 -122.5869 112° Southeast 258 297 4,400 -1,900 Descending Seattle Center
Thu 01:58:16 AM 47.7603 -122.5122 122° Southeast 252 290 3,200 -1,377 Descending Seattle Center
Thu 01:58:31 AM 47.7525 -122.4936 148° Southeast 245 282 3,000 -984 Descending Seattle Center
Thu 01:59:17 AM 47.7167 -122.4600 174° South 204 235 2,200 -1,000 Descending Seattle Center
Thu 01:59:19 AM 47.7128 -122.4594 150° Southeast 188 216 2,200  Level Seattle Center
Thu 02:00:02 AM 47.6847 -122.4356 148° Southeast 168 193 2,200  Level Seattle Center
Thu 02:00:17 AM 47.6764 -122.4278 149° Southeast 175 201 2,200  Level Seattle Center
Thu 02:01:14 AM 47.6389 -122.3950 214° Southwest 171 197 2,200  Level Seattle Center
Thu 02:01:18 AM 47.6381 -122.3958 150° Southeast 163 188 2,200 -563 Level Seattle Center
Thu 02:02:18 AM 47.6025 -122.3658 152° Southeast 145 167 1,600 -667 Descending Seattle Center
Thu 02:02:21 AM 47.6000 -122.3639 149° Southeast 145 167 1,500 -800 Descending Seattle Center
Thu 02:03:18 AM 47.5731 -122.3397 148° Southeast 126 145 800 -716 Descending Seattle Center
Thu 02:03:28 AM 47.5683 -122.3353 151° Southeast 128 147 700 -590 Descending Seattle Center
Thu 02:04:19 AM 47.5436 -122.3150 149° Southeast 125 144 200 8,811 Descending Seattle Center
Thu 02:05:19 AM 47.5136 -122.2883 149° Southeast 125 144 17,000 16,800 Climbing Seattle Center

Login

Don't have an account? Register now (free) for customized features, flight alerts, and more!